Time;durP1;ratioP1;P1;durP2;ratioP2;P2;SDS_P1;SDS_P2;PMS_P1;PMS_P2;Temp;Humidity;BMP_temperature;BMP_pressure;BME280_temperature;BME280_humidity;BME280_pressure;Samples;Min_cycle;Max_cycle;Signal;HPM_P1;HPM_P2
2023/08/07 00:00:57;;;;;;;2.28;2.08;;;;;;;-145.68;100.00;72920.19;10131586;29;20348;-69
2023/08/07 00:05:57;;;;;;;2.53;1.73;;;;;;;-145.68;100.00;72924.19;10131526;29;20221;-69
2023/08/07 00:11:10;;;;;;;3.65;2.15;;;;;;;-145.68;100.00;72916.19;10134013;29;20233;-69
2023/08/07 00:16:10;;;;;;;3.15;2.08;;;;;;;-145.68;100.00;72916.19;10139689;29;20217;-69
2023/08/07 00:21:11;;;;;;;2.20;2.00;;;;;;;-145.68;100.00;72916.19;10139019;29;20332;-69
2023/08/07 00:26:12;;;;;;;3.75;2.65;;;;;;;-145.68;100.00;72924.19;10138897;29;20357;-69
2023/08/07 00:31:12;;;;;;;2.83;2.22;;;;;;;-145.68;100.00;72912.19;10138540;29;20279;-69
2023/08/07 00:36:14;;;;;;;2.60;2.40;;;;;;;-145.68;100.00;72906.19;10137091;29;20209;-69
2023/08/07 00:41:16;;;;;;;4.50;2.63;;;;;;;-145.68;100.00;72918.19;10138353;29;20292;-69
2023/08/07 00:46:17;;;;;;;4.25;3.00;;;;;;;-145.68;100.00;72910.19;10136817;29;20696;-69
2023/08/07 00:51:18;;;;;;;4.55;2.80;;;;;;;-145.68;100.00;72908.19;10137995;29;20661;-69
2023/08/07 00:56:18;;;;;;;2.30;2.10;;;;;;;-145.68;100.00;72890.22;10152304;29;20221;-69
2023/08/07 01:01:19;;;;;;;3.78;2.65;;;;;;;-145.68;100.00;72888.22;10137182;29;20734;-69
2023/08/07 01:06:20;;;;;;;3.60;2.55;;;;;;;-145.68;100.00;72880.22;10136290;29;20683;-70
2023/08/07 01:11:34;;;;;;;2.83;2.03;;;;;;;-145.68;100.00;72888.22;10136905;29;20260;-69
2023/08/07 01:16:43;;;;;;;2.45;2.25;;;;;;;-145.68;100.00;72890.22;10159226;29;20287;-69
2023/08/07 01:21:46;;;;;;;2.45;2.25;;;;;;;-145.68;100.00;72880.22;10175501;29;20283;-69
2023/08/07 01:26:46;;;;;;;2.20;1.77;;;;;;;-145.68;100.00;72868.22;10174595;29;20739;-69
2023/08/07 01:31:49;;;;;;;3.45;1.92;;;;;;;-145.68;100.00;72878.22;10158640;29;20235;-69
2023/08/07 01:36:50;;;;;;;2.58;2.10;;;;;;;-145.68;100.00;72886.22;10175473;29;20680;-70
2023/08/07 01:41:50;;;;;;;3.95;2.08;;;;;;;-145.68;100.00;72884.22;10158140;29;20240;-70
2023/08/07 01:46:51;;;;;;;3.38;2.78;;;;;;;-145.68;100.00;72882.22;10173989;29;20626;-70
2023/08/07 01:51:51;;;;;;;4.00;2.70;;;;;;;-145.68;100.00;72888.22;10157765;29;20240;-70
2023/08/07 01:56:51;;;;;;;3.20;2.90;;;;;;;-145.68;100.00;72890.22;10174376;29;20292;-70
2023/08/07 02:01:52;;;;;;;4.13;2.58;;;;;;;-145.68;100.00;72888.22;10157612;29;20292;-70
2023/08/07 02:06:52;;;;;;;3.13;2.78;;;;;;;-145.68;100.00;72888.22;10174372;29;20687;-70
2023/08/07 02:11:54;;;;;;;7.65;4.10;;;;;;;-145.68;100.00;72908.19;10155870;29;20252;-70
2023/08/07 02:16:55;;;;;;;4.20;3.80;;;;;;;-145.68;100.00;72904.19;10173982;29;20211;-69
2023/08/07 02:21:55;;;;;;;5.47;4.97;;;;;;;-145.68;100.00;72908.19;10156985;29;20228;-69
2023/08/07 02:26:56;;;;;;;9.20;7.35;;;;;;;-145.68;100.00;72926.19;10156858;29;20204;-69
2023/08/07 02:31:56;;;;;;;9.25;7.63;;;;;;;-145.68;100.00;72930.19;10173759;29;20234;-68
2023/08/07 02:36:56;;;;;;;13.07;11.32;;;;;;;-145.68;100.00;72934.19;10172922;29;20382;-68
2023/08/07 02:41:57;;;;;;;8.65;7.75;;;;;;;-145.68;100.00;72940.16;10173993;29;20243;-69
2023/08/07 02:46:57;;;;;;;7.32;6.57;;;;;;;-145.68;100.00;72948.16;10174013;29;20734;-69
2023/08/07 02:51:57;;;;;;;6.95;5.95;;;;;;;-145.68;100.00;72944.16;10156402;29;20695;-69
2023/08/07 02:56:58;;;;;;;7.18;6.25;;;;;;;-145.68;100.00;72944.16;10156647;29;20583;-70
2023/08/07 03:01:58;;;;;;;7.68;6.78;;;;;;;-145.68;100.00;72950.16;10154438;29;20244;-69
2023/08/07 03:06:59;;;;;;;9.35;6.22;;;;;;;-145.68;100.00;72962.16;10171196;29;20212;-67
2023/08/07 03:12:03;;;;;;;8.40;5.75;;;;;;;-145.68;100.00;72968.16;10154564;29;20288;-68
2023/08/07 03:17:03;;;;;;;4.50;3.80;;;;;;;-145.68;100.00;72976.16;10171223;29;20208;-67
2023/08/07 03:22:04;;;;;;;4.50;2.90;;;;;;;-145.68;100.00;72990.13;10170983;29;20702;-67
2023/08/07 03:27:05;;;;;;;2.92;2.72;;;;;;;-145.68;100.00;73008.13;10154335;29;20299;-69
2023/08/07 03:32:06;;;;;;;6.32;3.35;;;;;;;-145.68;100.00;73052.09;10171423;29;20241;-68
2023/08/07 03:37:08;;;;;;;7.63;4.00;;;;;;;-145.68;100.00;73052.09;10170113;29;20205;-67
2023/08/07 03:42:09;;;;;;;5.97;4.75;;;;;;;-145.68;100.00;73068.06;10170775;29;20239;-68
2023/08/07 03:47:09;;;;;;;7.43;6.43;;;;;;;-145.68;100.00;73078.06;10154401;29;20225;-70
2023/08/07 03:52:10;;;;;;;10.27;9.13;;;;;;;-145.68;100.00;73082.06;10153879;29;20231;-70
2023/08/07 03:57:10;;;;;;;13.60;9.82;;;;;;;-145.68;100.00;73092.06;10169854;29;20208;-70
2023/08/07 04:02:12;;;;;;;11.07;9.57;;;;;;;-145.68;100.00;73110.06;10153348;29;20244;-69
2023/08/07 04:07:13;;;;;;;13.63;11.00;;;;;;;-145.68;100.00;73104.06;10170849;29;20554;-68
2023/08/07 04:12:13;;;;;;;14.77;11.95;;;;;;;-145.68;100.00;73112.03;10170860;29;20232;-69
2023/08/07 04:17:14;;;;;;;17.15;10.75;;;;;;;-145.68;100.00;73114.03;10153277;29;20591;-69
2023/08/07 04:22:15;;;;;;;14.95;10.25;;;;;;;-145.68;100.00;73112.03;10170538;29;20236;-70
2023/08/07 04:27:15;;;;;;;12.15;9.90;;;;;;;-145.68;100.00;73114.03;10169977;29;20216;-69
2023/08/07 04:32:16;;;;;;;13.75;9.90;;;;;;;-145.68;100.00;73112.03;10153984;29;20229;-70
2023/08/07 04:37:16;;;;;;;12.90;9.77;;;;;;;-145.68;100.00;73110.06;10170733;29;20290;-70
2023/08/07 04:42:16;;;;;;;11.85;10.45;;;;;;;-145.68;100.00;73110.06;10170909;29;20738;-70
2023/08/07 04:47:17;;;;;;;11.90;9.57;;;;;;;-145.68;100.00;73104.06;10171441;29;20679;-70
2023/08/07 04:52:17;;;;;;;10.98;9.32;;;;;;;-145.68;100.00;73108.06;10170810;29;20697;-69
2023/08/07 04:57:17;;;;;;;12.18;8.27;;;;;;;-145.68;100.00;73104.06;10172765;29;20589;-70
2023/08/07 05:02:18;;;;;;;10.75;8.93;;;;;;;-145.68;100.00;73092.06;10203988;23;20625;-69
2023/08/07 05:07:19;;;;;;;14.65;8.38;;;;;;;-145.68;100.00;73086.06;10213830;29;20267;-70
2023/08/07 05:12:19;;;;;;;12.32;9.30;;;;;;;-145.68;100.00;73092.06;10200093;29;20292;-70
2023/08/07 05:17:20;;;;;;;10.18;8.02;;;;;;;-145.68;100.00;73062.09;10176023;29;20239;-69
2023/08/07 05:22:20;;;;;;;11.93;7.32;;;;;;;-145.68;100.00;73032.09;10175946;29;20292;-70
2023/08/07 05:27:21;;;;;;;11.73;7.18;;;;;;;-145.68;100.00;73012.13;10175885;29;20213;-69
2023/08/07 05:32:21;;;;;;;7.63;6.82;;;;;;;-145.68;100.00;72996.13;10175445;29;20228;-69
2023/08/07 05:37:22;;;;;;;10.13;6.32;;;;;;;-145.68;100.00;72950.16;10175534;29;20235;-70
2023/08/07 05:42:22;;;;;;;7.85;5.90;;;;;;;-145.68;100.00;72910.19;10174933;29;20241;-71
2023/08/07 05:47:22;;;;;;;9.23;5.13;;;;;;;-145.68;100.00;72900.19;10175063;29;20272;-69
2023/08/07 05:52:23;;;;;;;7.70;4.03;;;;;;;-145.68;100.00;72954.16;10174882;29;20228;-68
2023/08/07 05:57:24;;;;;;;3.75;3.40;;;;;;;-145.68;100.00;72978.16;10172977;29;20213;-68
2023/08/07 06:02:25;;;;;;;4.20;2.78;;;;;;;-145.68;100.00;72994.13;10172942;29;20241;-68
2023/08/07 06:07:25;;;;;;;5.45;3.67;;;;;;;-145.68;100.00;73012.13;10173167;29;20589;-67
2023/08/07 06:12:26;;;;;;;4.28;3.88;;;;;;;-145.68;100.00;73016.13;10173141;29;20242;-67
2023/08/07 06:17:27;;;;;;;5.88;3.70;;;;;;;-145.68;100.00;73012.13;10174094;29;20615;-68
2023/08/07 06:22:27;;;;;;;4.05;3.22;;;;;;;-145.68;100.00;73020.13;10173502;29;20240;-69
2023/08/07 06:27:28;;;;;;;3.85;3.13;;;;;;;-145.68;100.00;72984.13;10173684;29;20216;-68
2023/08/07 06:32:28;;;;;;;4.30;2.72;;;;;;;-145.68;100.00;72976.16;10171857;29;20236;-68
2023/08/07 06:37:29;;;;;;;9.02;3.58;;;;;;;-145.68;100.00;72980.13;10173031;29;20592;-69
2023/08/07 06:42:29;;;;;;;3.88;2.60;;;;;;;-145.68;100.00;72972.16;10172453;29;20602;-68
2023/08/07 06:47:29;;;;;;;2.78;2.58;;;;;;;-145.68;100.00;72956.16;10171370;29;20221;-68
2023/08/07 06:52:30;;;;;;;3.42;3.13;;;;;;;-145.68;100.00;72946.16;10172804;29;20283;-70
2023/08/07 06:57:30;;;;;;;3.72;3.10;;;;;;;-145.68;100.00;72940.16;10172229;29;20674;-70
2023/08/07 07:02:32;;;;;;;3.20;2.90;;;;;;;-145.68;100.00;72950.16;10173889;29;20618;-70
2023/08/07 07:07:32;;;;;;;3.97;2.58;;;;;;;-145.68;100.00;72972.16;10173715;29;20387;-71
2023/08/07 07:12:32;;;;;;;2.63;2.35;;;;;;;-145.68;100.00;72916.19;10171903;29;20267;-72
2023/08/07 07:17:33;;;;;;;7.10;3.20;;;;;;;-145.68;100.00;72946.16;10171899;29;20553;-71
2023/08/07 07:22:33;;;;;;;4.32;2.97;;;;;;;-145.68;100.00;72920.19;10171774;29;20240;-70
2023/08/07 07:27:33;;;;;;;3.42;3.00;;;;;;;-145.68;100.00;73010.13;10172122;29;20204;-69
2023/08/07 07:32:34;;;;;;;4.72;2.70;;;;;;;-145.68;100.00;73036.09;10165655;29;20268;-68
2023/08/07 07:37:34;;;;;;;3.58;2.55;;;;;;;-145.68;100.00;73058.09;10170015;29;20208;-69
2023/08/07 07:42:34;;;;;;;6.85;3.03;;;;;;;-145.68;100.00;73072.06;10168258;29;20248;-68
2023/08/07 07:47:35;;;;;;;5.40;2.95;;;;;;;-145.68;100.00;73024.13;10169545;29;20208;-69
2023/08/07 07:52:35;;;;;;;4.45;2.67;;;;;;;-145.68;100.00;72982.13;10167617;29;20235;-68
2023/08/07 07:57:36;;;;;;;2.60;2.33;;;;;;;-145.68;100.00;72984.13;10167408;29;20694;-69
2023/08/07 08:02:36;;;;;;;4.05;2.20;;;;;;;-145.68;100.00;72964.16;10168306;29;20268;-69
2023/08/07 08:07:38;;;;;;;3.33;1.90;;;;;;;-145.68;100.00;72946.16;10169050;29;20227;-68
2023/08/07 08:12:39;;;;;;;2.78;1.70;;;;;;;-145.68;100.00;72930.19;10167480;29;20240;-69
2023/08/07 08:17:39;;;;;;;1.83;1.73;;;;;;;-145.68;100.00;72916.19;10168410;29;20212;-69
2023/08/07 08:22:40;;;;;;;2.63;1.52;;;;;;;-145.68;100.00;72952.16;10167316;29;20228;-69
2023/08/07 08:27:40;;;;;;;1.58;1.48;;;;;;;-145.68;100.00;73028.09;10167004;29;20247;-69
2023/08/07 08:32:42;;;;;;;3.65;2.28;;;;;;;-145.68;100.00;73092.06;10151303;29;20723;-69
2023/08/07 08:37:42;;;;;;;3.53;2.00;;;;;;;-145.68;100.00;73084.06;10173531;29;20304;-68
2023/08/07 08:42:47;;;;;;;2.17;1.98;;;;;;;-145.68;100.00;73038.09;10174313;29;20244;-69
2023/08/07 08:47:49;;;;;;;2.65;1.80;;;;;;;-145.68;100.00;73004.13;10156002;29;20224;-68
2023/08/07 08:52:51;;;;;;;2.08;1.90;;;;;;;-145.68;100.00;73014.13;10150816;29;20743;-69
2023/08/07 08:57:51;;;;;;;2.83;2.15;;;;;;;-145.68;100.00;73042.09;10157941;29;20676;-68
2023/08/07 09:02:52;;;;;;;2.45;1.60;;;;;;;-145.68;100.00;73028.09;10169731;29;20241;-68
2023/08/07 09:07:52;;;;;;;2.08;1.58;;;;;;;-145.68;100.00;73032.09;10154743;29;20232;-69
2023/08/07 09:12:57;;;;;;;2.20;2.00;;;;;;;-145.68;100.00;73022.13;10153680;29;20616;-69
2023/08/07 09:17:59;;;;;;;3.83;1.90;;;;;;;-145.68;100.00;73024.13;10145335;29;20751;-70
2023/08/07 09:22:59;;;;;;;12.05;2.15;;;;;;;-145.68;100.00;73024.13;10167165;29;20771;-69
2023/08/07 09:28:04;;;;;;;2.67;2.17;;;;;;;-145.68;100.00;72994.13;10167043;29;20220;-70
2023/08/07 09:33:04;;;;;;;2.80;1.60;;;;;;;-145.68;100.00;73050.09;10154084;29;21084;-70
2023/08/07 09:38:05;;;;;;;4.43;1.48;;;;;;;-145.68;100.00;73010.13;10173430;29;20224;-71
2023/08/07 09:43:07;;;;;;;2.05;1.50;;;;;;;-145.68;100.00;72986.13;10168379;29;20299;-70
2023/08/07 09:48:07;;;;;;;2.60;1.20;;;;;;;-145.68;100.00;72840.25;10135676;29;20213;-70
2023/08/07 09:53:09;;;;;;;1.85;1.15;;;;;;;-145.68;91.11;72810.28;10161024;29;20244;-70
2023/08/07 09:58:12;;;;;;;2.88;1.17;;;;;;;-145.68;90.47;72778.28;10170944;29;20707;-70
2023/08/07 10:03:13;;;;;;;1.40;1.30;;;;;;;-145.68;86.34;72860.22;10172381;29;20240;-69
2023/08/07 10:08:14;;;;;;;1.55;1.20;;;;;;;-145.68;85.53;72800.28;10172876;29;20212;-70
2023/08/07 10:13:14;;;;;;;3.60;1.35;;;;;;;-145.68;86.69;72812.28;10172033;29;20711;-69
2023/08/07 10:18:15;;;;;;;2.47;1.23;;;;;;;-145.68;85.28;72832.25;10172444;29;20251;-70
2023/08/07 10:23:17;;;;;;;4.07;1.25;;;;;;;-145.68;87.66;72838.25;10153949;29;20244;-70
2023/08/07 10:28:18;;;;;;;2.70;1.60;;;;;;;-145.68;92.26;72960.16;10155480;29;20200;-70
2023/08/07 10:33:20;;;;;;;1.98;1.48;;;;;;;-145.68;94.52;72854.25;10155175;29;20229;-70
2023/08/07 10:38:22;;;;;;;2.10;1.40;;;;;;;-145.68;86.91;72764.31;10171710;29;20696;-68
2023/08/07 10:43:24;;;;;;;4.93;1.45;;;;;;;-145.68;87.63;72812.28;10171715;29;20263;-69
2023/08/07 10:48:26;;;;;;;4.72;1.30;;;;;;;-145.68;87.84;72804.28;10171100;29;20204;-69
2023/08/07 10:53:44;;;;;;;2.05;1.10;;;;;;;-145.68;75.46;72590.44;10169752;29;20233;-72
2023/08/07 10:58:50;;;;;;;1.35;1.20;;;;;;;-145.68;78.40;72776.28;10170609;29;20705;-70
2023/08/07 11:03:53;;;;;;;1.58;1.25;;;;;;;-145.68;87.45;72916.19;10174112;23;20327;-68
2023/08/07 11:08:54;;;;;;;1.58;1.38;;;;;;;-145.68;100.00;73022.13;10169396;29;20220;-69
2023/08/07 11:13:54;;;;;;;1.50;1.40;;;;;;;-145.68;100.00;73042.09;10146663;29;20610;-69
2023/08/07 11:18:55;;;;;;;1.38;1.27;;;;;;;-145.68;100.00;72948.16;10131372;29;20646;-69
2023/08/07 11:23:55;;;;;;;1.33;1.23;;;;;;;-145.68;100.00;72758.31;10169708;29;20274;-68
2023/08/07 11:28:56;;;;;;;2.45;1.10;;;;;;;-145.68;100.00;72756.31;10169409;29;20837;-69
2023/08/07 11:33:57;;;;;;;0.88;0.82;;;;;;;-145.68;88.86;72670.38;10169638;29;20232;-68
2023/08/07 11:38:58;;;;;;;1.58;1.10;;;;;;;-145.68;99.12;72930.19;10170236;29;20216;-69
2023/08/07 11:43:59;;;;;;;0.70;0.70;;;;;;;-145.68;100.00;73002.13;10167370;29;20319;-69
2023/08/07 11:49:00;;;;;;;1.13;1.02;;;;;;;-145.68;100.00;72978.16;10169956;29;20217;-69
2023/08/07 11:54:00;;;;;;;5.47;1.42;;;;;;;-145.68;100.00;72930.19;10153164;29;20979;-70
2023/08/07 11:59:02;;;;;;;0.98;0.98;;;;;;;-145.68;100.00;72960.16;10166590;29;20217;-70
2023/08/07 12:04:05;;;;;;;0.93;0.93;;;;;;;-145.68;100.00;72868.22;10167730;29;20240;-70
2023/08/07 12:09:12;;;;;;;0.80;0.80;;;;;;;-145.68;100.00;72850.25;10170883;29;20221;-70
2023/08/07 12:14:17;;;;;;;0.80;0.80;;;;;;;-145.68;100.00;72770.31;10175777;29;20722;-69
2023/08/07 12:19:19;;;;;;;0.70;0.70;;;;;;;-145.68;93.24;72810.28;10176989;29;20268;-69
2023/08/07 12:24:20;;;;;;;0.80;0.80;;;;;;;-145.68;100.00;72866.22;10179337;29;20663;-70
2023/08/07 12:29:20;;;;;;;2.85;1.85;;;;;;;-145.68;100.00;72852.25;10180343;29;20279;-69
2023/08/07 12:34:21;;;;;;;0.65;0.65;;;;;;;-145.68;90.76;72702.34;10185594;29;20299;-69
2023/08/07 12:39:21;;;;;;;0.80;0.80;;;;;;;-145.68;81.80;72732.34;10177140;29;20209;-67
2023/08/07 12:44:21;;;;;;;0.77;0.70;;;;;;;-145.68;86.62;72772.31;10176700;29;20248;-69
2023/08/07 12:49:23;;;;;;;0.68;0.68;;;;;;;-145.68;83.04;72828.25;10175988;29;20219;-68
2023/08/07 12:54:24;;;;;;;1.48;0.85;;;;;;;-145.68;86.43;72834.25;10176008;29;20287;-68
2023/08/07 12:59:24;;;;;;;1.13;0.90;;;;;;;-145.68;88.91;72894.22;10176181;29;20983;-68
2023/08/07 13:04:25;;;;;;;0.68;0.68;;;;;;;-145.68;100.00;72928.19;10174832;29;20244;-68
2023/08/07 13:09:25;;;;;;;2.10;1.27;;;;;;;-145.68;100.00;72790.28;10174019;29;20220;-70
2023/08/07 13:14:26;;;;;;;0.82;0.70;;;;;;;-145.68;100.00;72814.28;10176146;29;20714;-67
2023/08/07 13:19:26;;;;;;;0.80;0.60;;;;;;;-145.68;93.07;72728.34;10176171;29;20750;-68
2023/08/07 13:24:26;;;;;;;0.63;0.57;;;;;;;-145.68;89.39;72732.34;10173710;29;20287;-68
2023/08/07 13:29:29;;;;;;;1.00;0.77;;;;;;;-145.68;93.79;72834.25;10175733;29;20216;-69
2023/08/07 13:34:29;;;;;;;0.65;0.65;;;;;;;-145.68;99.86;72968.16;10156822;29;20857;-68
2023/08/07 13:39:30;;;;;;;3.10;0.90;;;;;;;-145.68;100.00;73028.09;10176635;29;20204;-69
2023/08/07 13:44:30;;;;;;;1.05;0.70;;;;;;;-145.68;100.00;73046.09;10174159;29;20233;-69
2023/08/07 13:49:30;;;;;;;1.55;0.80;;;;;;;-145.68;100.00;72922.19;10174149;29;20260;-68
2023/08/07 13:54:31;;;;;;;1.00;0.90;;;;;;;-145.68;100.00;72776.28;10174454;29;20252;-68
2023/08/07 13:59:31;;;;;;;0.50;0.50;;;;;;;-145.68;92.18;72740.31;10175195;29;20212;-69
2023/08/07 14:04:32;;;;;;;0.70;0.65;;;;;;;-145.68;87.81;72782.28;10176707;29;20264;-68
2023/08/07 14:09:32;;;;;;;0.45;0.45;;;;;;;-145.68;90.21;72764.31;10174962;29;20205;-67
2023/08/07 14:14:32;;;;;;;0.82;0.60;;;;;;;-145.68;93.22;72820.25;10176338;29;20267;-68
2023/08/07 14:19:33;;;;;;;0.85;0.70;;;;;;;-145.68;94.17;72976.16;10176058;29;20762;-67
2023/08/07 14:24:33;;;;;;;0.73;0.70;;;;;;;-145.68;100.00;73020.13;10178158;29;20720;-67
2023/08/07 14:29:33;;;;;;;1.20;0.90;;;;;;;-145.68;100.00;73164.00;10175059;29;20585;-69
2023/08/07 14:34:34;;;;;;;2.70;1.00;;;;;;;-145.68;100.00;73182.00;10171595;29;20375;-69
2023/08/07 14:39:34;;;;;;;0.93;0.93;;;;;;;-145.68;100.00;73180.00;10153914;29;20217;-69
2023/08/07 14:44:36;;;;;;;0.70;0.70;;;;;;;-145.68;100.00;73174.00;10170068;29;20302;-69
2023/08/07 14:49:37;;;;;;;1.15;0.90;;;;;;;-145.68;100.00;73142.03;10202198;29;20224;-69
2023/08/07 14:54:37;;;;;;;3.03;1.00;;;;;;;-145.68;100.00;73132.03;10213164;29;20330;-70
2023/08/07 14:59:38;;;;;;;2.15;0.85;;;;;;;-145.68;100.00;73146.03;10193482;29;20261;-68
2023/08/07 15:04:38;;;;;;;1.25;1.00;;;;;;;-145.68;100.00;73194.00;10172617;29;20266;-69
2023/08/07 15:09:38;;;;;;;0.98;0.90;;;;;;;-145.68;100.00;73223.97;10208733;29;20603;-69
2023/08/07 15:14:39;;;;;;;2.72;1.05;;;;;;;-145.68;100.00;73162.00;10174985;29;20672;-70
2023/08/07 15:19:39;;;;;;;1.33;0.77;;;;;;;-145.68;100.00;73114.03;10211492;29;20618;-69
2023/08/07 15:24:39;;;;;;;0.80;0.77;;;;;;;-145.68;100.00;73130.03;10211976;29;20246;-69
2023/08/07 15:29:46;;;;;;;0.80;0.80;;;;;;;-145.68;100.00;73176.00;10213941;29;20234;-68
2023/08/07 15:34:47;;;;;;;0.90;0.80;;;;;;;-145.68;100.00;73196.00;10182624;29;20746;-69
2023/08/07 15:39:48;;;;;;;1.00;0.90;;;;;;;-145.68;100.00;73196.00;10175958;29;20220;-70
2023/08/07 15:44:48;;;;;;;7.07;3.58;;;;;;;-145.68;100.00;73076.06;10176390;29;20694;-68
2023/08/07 15:49:48;;;;;;;1.20;0.80;;;;;;;-145.68;100.00;72986.13;10169128;29;20216;-68
2023/08/07 15:54:49;;;;;;;1.63;0.80;;;;;;;-145.68;100.00;73066.09;10167748;29;20237;-68
2023/08/07 15:59:49;;;;;;;1.10;0.77;;;;;;;-145.68;100.00;73124.03;10172009;29;20272;-68
2023/08/07 16:04:50;;;;;;;0.73;0.73;;;;;;;-145.68;100.00;73166.00;10167373;29;20232;-68
2023/08/07 16:09:50;;;;;;;1.33;0.93;;;;;;;-145.68;100.00;73168.00;10166889;29;20241;-68
2023/08/07 16:14:50;;;;;;;2.05;0.80;;;;;;;-145.68;100.00;73180.00;10166430;29;20232;-69
2023/08/07 16:19:51;;;;;;;2.22;0.85;;;;;;;-145.68;100.00;73219.97;10174128;29;20212;-69
2023/08/07 16:24:51;;;;;;;1.05;0.98;;;;;;;-145.68;100.00;73239.97;10190657;29;20238;-69
2023/08/07 16:29:52;;;;;;;1.48;0.80;;;;;;;-145.68;100.00;73235.97;10208396;29;20576;-69
2023/08/07 16:34:52;;;;;;;1.88;0.80;;;;;;;-145.68;100.00;73245.97;10208129;29;20240;-69
2023/08/07 16:39:52;;;;;;;4.43;2.10;;;;;;;-145.68;100.00;73317.91;10194696;29;21012;-69
2023/08/07 16:44:53;;;;;;;5.13;3.08;;;;;;;-145.68;100.00;73317.91;10207834;29;20614;-69
2023/08/07 16:49:53;;;;;;;1.67;1.02;;;;;;;-145.68;100.00;73341.91;10194634;29;20222;-69
2023/08/07 16:54:54;;;;;;;2.72;1.38;;;;;;;-145.68;100.00;73327.91;10212853;29;20235;-69
2023/08/07 16:59:54;;;;;;;2.30;1.27;;;;;;;-145.68;100.00;73335.91;10215637;29;20768;-69
2023/08/07 17:04:55;;;;;;;1.42;1.13;;;;;;;-145.68;100.00;73337.91;10220366;23;20326;-66
2023/08/07 17:09:55;;;;;;;0.93;0.93;;;;;;;-145.68;100.00;73349.88;10213012;29;20231;-64
2023/08/07 17:14:55;;;;;;;3.70;1.25;;;;;;;-145.68;100.00;73357.88;10185414;29;20331;-67
2023/08/07 17:19:56;;;;;;;1.77;1.17;;;;;;;-145.68;100.00;73369.88;10166485;29;20252;-67
2023/08/07 17:24:58;;;;;;;2.03;0.98;;;;;;;-145.68;100.00;73363.88;10164750;29;20236;-68
2023/08/07 17:29:58;;;;;;;2.15;1.40;;;;;;;-145.68;100.00;73395.84;10171408;29;20222;-68
2023/08/07 17:35:00;;;;;;;2.97;1.65;;;;;;;-145.68;100.00;73419.84;10171213;29;20236;-68
2023/08/07 17:40:01;;;;;;;6.43;1.90;;;;;;;-145.68;100.00;73415.84;10170790;29;20295;-68
2023/08/07 17:45:02;;;;;;;6.30;1.92;;;;;;;-145.68;100.00;73427.84;10170348;29;20767;-68
2023/08/07 17:50:02;;;;;;;5.60;1.80;;;;;;;-145.68;100.00;73435.84;10170531;29;20216;-68
2023/08/07 17:55:03;;;;;;;6.38;2.17;;;;;;;-145.68;100.00;73437.84;10168465;29;20328;-68
2023/08/07 18:00:07;;;;;;;4.97;2.00;;;;;;;-145.68;100.00;73437.84;10171105;29;20213;-68
2023/08/07 18:05:09;;;;;;;8.73;2.55;;;;;;;-145.68;100.00;73445.81;10170278;29;20664;-68
2023/08/07 18:10:10;;;;;;;11.13;2.60;;;;;;;-145.68;100.00;73441.81;10170197;29;20308;-68
2023/08/07 18:15:11;;;;;;;4.63;2.17;;;;;;;-145.68;100.00;73445.81;10194254;29;20269;-68
2023/08/07 18:20:11;;;;;;;9.15;2.53;;;;;;;-145.68;100.00;73445.81;10194157;29;20212;-69
2023/08/07 18:25:12;;;;;;;8.20;2.72;;;;;;;-145.68;100.00;73467.81;10171070;29;20231;-69
2023/08/07 18:30:12;;;;;;;6.55;2.70;;;;;;;-145.68;100.00;73469.81;10172924;29;20251;-68
2023/08/07 18:35:13;;;;;;;4.95;2.58;;;;;;;-145.68;100.00;73525.78;10173030;29;20590;-68
2023/08/07 18:40:14;;;;;;;8.90;2.78;;;;;;;-145.68;100.00;73519.78;10172676;29;20246;-68
2023/08/07 18:45:14;;;;;;;7.93;2.55;;;;;;;-145.68;100.00;73549.75;10172671;29;20741;-68
2023/08/07 18:50:15;;;;;;;9.65;3.67;;;;;;;-145.68;100.00;73573.75;10172696;29;20247;-68
2023/08/07 18:55:15;;;;;;;7.70;3.03;;;;;;;-145.68;100.00;73595.75;10172132;29;20291;-70
2023/08/07 19:00:16;;;;;;;13.60;3.13;;;;;;;-145.68;100.00;73599.72;10172273;29;20683;-70
2023/08/07 19:05:17;;;;;;;9.23;3.03;;;;;;;-145.68;100.00;73605.72;10171697;29;20269;-70
2023/08/07 19:10:17;;;;;;;8.93;3.15;;;;;;;-145.68;100.00;73611.72;10171915;29;20649;-69
2023/08/07 19:15:17;;;;;;;9.73;2.78;;;;;;;-145.68;100.00;73607.72;10170963;29;20232;-69
2023/08/07 19:20:18;;;;;;;10.32;3.15;;;;;;;-145.68;100.00;73619.72;10171407;29;20235;-68
2023/08/07 19:25:18;;;;;;;9.90;3.05;;;;;;;-145.68;100.00;73619.72;10171231;29;20231;-69
2023/08/07 19:30:19;;;;;;;7.28;3.30;;;;;;;-145.68;100.00;73629.72;10171101;29;20303;-69
2023/08/07 19:35:19;;;;;;;7.50;2.72;;;;;;;-145.68;100.00;73605.72;10171130;29;20334;-69
2023/08/07 19:40:24;;;;;;;15.48;3.55;;;;;;;-145.68;100.00;73609.72;10170785;29;20758;-69
2023/08/07 19:45:24;;;;;;;6.97;2.90;;;;;;;-145.68;100.00;73609.72;10170713;29;20324;-69
2023/08/07 19:50:25;;;;;;;6.40;2.80;;;;;;;-145.68;100.00;73605.72;10170617;29;20669;-69
2023/08/07 19:55:26;;;;;;;7.35;2.72;;;;;;;-145.68;100.00;73611.72;10170239;29;20264;-69
2023/08/07 20:00:26;;;;;;;8.05;2.83;;;;;;;-145.68;100.00;73619.72;10170387;29;20749;-70
2023/08/07 20:05:27;;;;;;;9.52;2.55;;;;;;;-145.68;100.00;73613.72;10170344;29;20250;-70
2023/08/07 20:10:27;;;;;;;11.05;3.50;;;;;;;-145.68;100.00;73599.72;10173617;29;20205;-70
2023/08/07 20:15:28;;;;;;;7.20;2.70;;;;;;;-145.68;100.00;73601.72;10167843;29;20232;-70
2023/08/07 20:20:28;;;;;;;7.10;3.05;;;;;;;-145.68;100.00;73599.72;10131017;29;20233;-70
2023/08/07 20:25:29;;;;;;;5.90;2.58;;;;;;;-145.68;100.00;73601.72;10130603;29;20233;-72
2023/08/07 20:30:29;;;;;;;6.45;3.10;;;;;;;-145.68;100.00;73597.75;10137283;29;20205;-71
2023/08/07 20:35:29;;;;;;;5.80;2.70;;;;;;;-145.68;100.00;73585.75;10138872;29;20285;-70
2023/08/07 20:40:31;;;;;;;8.40;3.13;;;;;;;-145.68;100.00;73585.75;10138580;29;20232;-71
2023/08/07 20:45:31;;;;;;;6.32;2.85;;;;;;;-145.68;100.00;73591.75;10138520;29;20328;-72
2023/08/07 20:50:32;;;;;;;6.57;2.50;;;;;;;-145.68;100.00;73599.72;10138299;29;20223;-70
2023/08/07 20:55:32;;;;;;;8.73;2.72;;;;;;;-145.68;100.00;73605.72;10138164;29;20743;-71
2023/08/07 21:00:33;;;;;;;6.35;2.60;;;;;;;-145.68;100.00;73605.72;10137804;29;20296;-71
2023/08/07 21:05:33;;;;;;;5.10;2.80;;;;;;;-145.68;100.00;73613.72;10137573;29;20335;-71
2023/08/07 21:10:33;;;;;;;5.53;2.58;;;;;;;-145.68;100.00;73611.72;10137557;29;20868;-70
2023/08/07 21:15:34;;;;;;;8.13;2.85;;;;;;;-145.68;100.00;73625.72;10137525;29;20225;-70
2023/08/07 21:20:34;;;;;;;6.03;2.75;;;;;;;-145.68;100.00;73605.72;10137363;29;20602;-70
2023/08/07 21:25:35;;;;;;;10.18;3.40;;;;;;;-145.68;100.00;73645.72;10136832;29;20244;-69
2023/08/07 21:30:35;;;;;;;10.35;3.05;;;;;;;-145.68;100.00;73657.69;10136847;29;20213;-70
2023/08/07 21:35:35;;;;;;;6.80;3.08;;;;;;;-145.68;100.00;73691.69;10136651;29;20237;-70
2023/08/07 21:40:38;;;;;;;15.68;3.35;;;;;;;-145.68;100.00;73689.69;10136377;29;20241;-70
2023/08/07 21:45:39;;;;;;;9.25;3.25;;;;;;;-145.68;100.00;73695.69;10136365;29;20273;-71
2023/08/07 21:50:39;;;;;;;9.15;2.78;;;;;;;-145.68;100.00;73687.69;10136323;29;20273;-71
2023/08/07 21:55:39;;;;;;;9.65;2.65;;;;;;;-145.68;100.00;73675.69;10137051;29;20263;-71
2023/08/07 22:00:40;;;;;;;8.77;2.83;;;;;;;-145.68;100.00;73667.69;10136131;29;20320;-69
2023/08/07 22:05:40;;;;;;;6.57;2.53;;;;;;;-145.68;100.00;73681.69;10135727;29;20233;-69
2023/08/07 22:10:41;;;;;;;6.15;2.83;;;;;;;-145.68;100.00;73679.69;10135464;29;20727;-70
2023/08/07 22:15:41;;;;;;;5.85;2.88;;;;;;;-145.68;100.00;73683.69;10135296;29;20270;-69
2023/08/07 22:20:42;;;;;;;6.10;2.55;;;;;;;-145.68;100.00;73681.69;10135302;29;20244;-70
2023/08/07 22:25:42;;;;;;;3.90;2.47;;;;;;;-145.68;100.00;73695.69;10134736;29;20260;-70
2023/08/07 22:30:42;;;;;;;11.20;2.95;;;;;;;-145.68;100.00;73695.69;10134830;29;20216;-70